sensor_id;sensor_type;location;lat;lon;timestamp;pressure;altitude;pressure_sealevel;temperature;humidity
38227;BME280;24026;49.446;8.576;2023-03-26T00:02:12;100020.56;;;14.64;47.87
38227;BME280;24026;49.446;8.576;2023-03-26T00:04:32;100024.34;;;14.63;47.90
38227;BME280;24026;49.446;8.576;2023-03-26T00:06:53;100022.44;;;14.64;47.86
38227;BME280;24026;49.446;8.576;2023-03-26T00:09:15;100024.06;;;14.65;47.99
38227;BME280;24026;49.446;8.576;2023-03-26T00:11:36;100018.97;;;14.63;47.96
38227;BME280;24026;49.446;8.576;2023-03-26T00:13:57;100015.50;;;14.63;48.12
38227;BME280;24026;49.446;8.576;2023-03-26T00:16:18;100022.72;;;14.62;48.25
38227;BME280;24026;49.446;8.576;2023-03-26T00:18:40;100013.91;;;14.62;48.13
38227;BME280;24026;49.446;8.576;2023-03-26T00:21:03;100020.03;;;14.62;48.29
38227;BME280;24026;49.446;8.576;2023-03-26T00:23:26;100021.94;;;14.62;48.27
38227;BME280;24026;49.446;8.576;2023-03-26T00:25:47;100020.31;;;14.61;48.35
38227;BME280;24026;49.446;8.576;2023-03-26T00:28:10;100015.25;;;14.59;48.45
38227;BME280;24026;49.446;8.576;2023-03-26T00:30:31;100019.00;;;14.58;48.47
38227;BME280;24026;49.446;8.576;2023-03-26T00:32:52;100020.59;;;14.59;48.69
38227;BME280;24026;49.446;8.576;2023-03-26T00:35:13;100015.25;;;14.59;48.50
38227;BME280;24026;49.446;8.576;2023-03-26T00:37:33;100020.06;;;14.57;48.57
38227;BME280;24026;49.446;8.576;2023-03-26T00:39:55;100013.91;;;14.57;48.71
38227;BME280;24026;49.446;8.576;2023-03-26T00:42:19;100014.19;;;14.55;48.76
38227;BME280;24026;49.446;8.576;2023-03-26T00:44:39;100019.25;;;14.57;48.77
38227;BME280;24026;49.446;8.576;2023-03-26T00:47:00;100015.25;;;14.54;48.75
38227;BME280;24026;49.446;8.576;2023-03-26T00:49:20;100019.28;;;14.52;48.81
38227;BME280;24026;49.446;8.576;2023-03-26T00:51:40;100002.94;;;14.53;48.84
38227;BME280;24026;49.446;8.576;2023-03-26T00:54:01;99999.75;;;14.51;48.91
38227;BME280;24026;49.446;8.576;2023-03-26T00:56:22;99994.41;;;14.51;48.98
38227;BME280;24026;49.446;8.576;2023-03-26T00:58:42;100000.84;;;14.50;49.00
38227;BME280;24026;49.446;8.576;2023-03-26T01:01:06;99996.28;;;14.51;49.02
38227;BME280;24026;49.446;8.576;2023-03-26T01:03:29;99983.97;;;14.50;49.01
38227;BME280;24026;49.446;8.576;2023-03-26T01:06:00;99979.19;;;14.46;49.02
38227;BME280;24026;49.446;8.576;2023-03-26T01:08:28;99982.69;;;14.47;49.14
38227;BME280;24026;49.446;8.576;2023-03-26T01:10:50;99971.47;;;14.45;49.55
38227;BME280;24026;49.446;8.576;2023-03-26T01:13:11;99971.16;;;14.46;49.25
38227;BME280;24026;49.446;8.576;2023-03-26T01:15:32;99966.63;;;14.47;49.13
38227;BME280;24026;49.446;8.576;2023-03-26T01:17:52;99967.69;;;14.46;49.14
38227;BME280;24026;49.446;8.576;2023-03-26T01:20:22;99961.84;;;14.44;49.35
38227;BME280;24026;49.446;8.576;2023-03-26T01:22:49;99962.91;;;14.43;49.42
38227;BME280;24026;49.446;8.576;2023-03-26T01:25:11;99961.84;;;14.44;49.33
38227;BME280;24026;49.446;8.576;2023-03-26T01:27:37;99968.25;;;14.43;49.43
38227;BME280;24026;49.446;8.576;2023-03-26T01:30:12;99964.00;;;14.42;49.44
38227;BME280;24026;49.446;8.576;2023-03-26T01:35:20;99951.69;;;14.41;49.49
38227;BME280;24026;49.446;8.576;2023-03-26T01:40:34;99932.47;;;14.39;49.47
38227;BME280;24026;49.446;8.576;2023-03-26T01:43:15;99938.09;;;14.37;49.51
38227;BME280;24026;49.446;8.576;2023-03-26T01:45:40;99920.97;;;14.38;49.56
38227;BME280;24026;49.446;8.576;2023-03-26T01:48:01;99920.16;;;14.38;49.58
38227;BME280;24026;49.446;8.576;2023-03-26T01:50:22;99914.03;;;14.37;49.54
38227;BME280;24026;49.446;8.576;2023-03-26T01:52:43;99910.56;;;14.37;49.64
38227;BME280;24026;49.446;8.576;2023-03-26T01:55:04;99906.00;;;14.37;49.64
38227;BME280;24026;49.446;8.576;2023-03-26T02:02:50;99890.53;;;14.34;49.82
38227;BME280;24026;49.446;8.576;2023-03-26T02:05:28;99890.53;;;14.34;49.99
38227;BME280;24026;49.446;8.576;2023-03-26T02:07:55;99888.13;;;14.33;49.79
38227;BME280;24026;49.446;8.576;2023-03-26T02:10:35;99884.94;;;14.31;49.75
38227;BME280;24026;49.446;8.576;2023-03-26T02:12:58;99884.66;;;14.32;49.85
38227;BME280;24026;49.446;8.576;2023-03-26T02:15:20;99877.44;;;14.33;49.80
38227;BME280;24026;49.446;8.576;2023-03-26T02:17:40;99871.28;;;14.32;49.83
38227;BME280;24026;49.446;8.576;2023-03-26T02:20:00;99858.72;;;14.33;49.82
38227;BME280;24026;49.446;8.576;2023-03-26T02:22:25;99852.59;;;14.32;49.87
38227;BME280;24026;49.446;8.576;2023-03-26T02:24:48;99850.69;;;14.33;49.80
38227;BME280;24026;49.446;8.576;2023-03-26T02:27:09;99847.50;;;14.31;49.92
38227;BME280;24026;49.446;8.576;2023-03-26T02:29:31;99839.78;;;14.29;50.15
38227;BME280;24026;49.446;8.576;2023-03-26T02:31:56;99837.88;;;14.30;49.83
38227;BME280;24026;49.446;8.576;2023-03-26T02:34:17;99833.34;;;14.30;49.90
38227;BME280;24026;49.446;8.576;2023-03-26T02:36:37;99833.63;;;14.29;49.81
38227;BME280;24026;49.446;8.576;2023-03-26T02:38:57;99820.28;;;14.29;50.08
38227;BME280;24026;49.446;8.576;2023-03-26T02:41:19;99821.06;;;14.29;49.94
38227;BME280;24026;49.446;8.576;2023-03-26T02:43:40;99819.44;;;14.28;50.07
38227;BME280;24026;49.446;8.576;2023-03-26T02:46:00;99820.28;;;14.29;49.96
38227;BME280;24026;49.446;8.576;2023-03-26T02:48:21;99807.97;;;14.27;49.89
38227;BME280;24026;49.446;8.576;2023-03-26T02:50:42;99807.97;;;14.27;49.92
38227;BME280;24026;49.446;8.576;2023-03-26T02:53:02;99801.84;;;14.27;50.02
38227;BME280;24026;49.446;8.576;2023-03-26T02:55:23;99798.34;;;14.26;49.96
38227;BME280;24026;49.446;8.576;2023-03-26T02:57:43;99795.69;;;14.26;50.06
38227;BME280;24026;49.446;8.576;2023-03-26T03:00:04;99784.97;;;14.26;50.04
38227;BME280;24026;49.446;8.576;2023-03-26T03:02:35;99786.09;;;14.25;50.11
38227;BME280;24026;49.446;8.576;2023-03-26T03:04:59;99784.19;;;14.26;50.14
38227;BME280;24026;49.446;8.576;2023-03-26T03:07:20;99781.81;;;14.24;50.12
38227;BME280;24026;49.446;8.576;2023-03-26T03:09:43;99776.44;;;14.24;49.99
38227;BME280;24026;49.446;8.576;2023-03-26T03:12:04;99778.06;;;14.25;50.11
38227;BME280;24026;49.446;8.576;2023-03-26T03:14:24;99772.44;;;14.27;50.04
38227;BME280;24026;49.446;8.576;2023-03-26T03:16:44;99760.13;;;14.26;50.02
38227;BME280;24026;49.446;8.576;2023-03-26T03:19:05;99758.03;;;14.23;49.95
38227;BME280;24026;49.446;8.576;2023-03-26T03:21:27;99754.28;;;14.24;50.11
38227;BME280;24026;49.446;8.576;2023-03-26T03:23:48;99750.00;;;14.23;50.20
38227;BME280;24026;49.446;8.576;2023-03-26T03:26:14;99759.63;;;14.24;50.12
38227;BME280;24026;49.446;8.576;2023-03-26T03:28:35;99754.56;;;14.22;50.14
38227;BME280;24026;49.446;8.576;2023-03-26T03:30:55;99747.34;;;14.23;50.25
38227;BME280;24026;49.446;8.576;2023-03-26T03:33:16;99756.72;;;14.20;50.13
38227;BME280;24026;49.446;8.576;2023-03-26T03:35:39;99752.69;;;14.23;50.12
38227;BME280;24026;49.446;8.576;2023-03-26T03:38:00;99741.75;;;14.19;50.20
38227;BME280;24026;49.446;8.576;2023-03-26T03:40:21;99740.41;;;14.22;50.21
38227;BME280;24026;49.446;8.576;2023-03-26T03:42:41;99739.59;;;14.21;50.14
38227;BME280;24026;49.446;8.576;2023-03-26T03:45:05;99736.41;;;14.19;50.35
38227;BME280;24026;49.446;8.576;2023-03-26T03:47:26;99724.66;;;14.20;50.11
38227;BME280;24026;49.446;8.576;2023-03-26T03:49:47;99728.13;;;14.21;50.06
38227;BME280;24026;49.446;8.576;2023-03-26T03:52:07;99724.94;;;14.19;50.25
38227;BME280;24026;49.446;8.576;2023-03-26T03:54:27;99719.59;;;14.19;50.09
38227;BME280;24026;49.446;8.576;2023-03-26T03:56:48;99722.53;;;14.17;50.14
38227;BME280;24026;49.446;8.576;2023-03-26T03:59:08;99710.25;;;14.16;50.27
38227;BME280;24026;49.446;8.576;2023-03-26T04:01:29;99711.06;;;14.17;50.26
38227;BME280;24026;49.446;8.576;2023-03-26T04:03:51;99705.44;;;14.18;50.22
38227;BME280;24026;49.446;8.576;2023-03-26T04:06:11;99700.09;;;14.18;50.26
38227;BME280;24026;49.446;8.576;2023-03-26T04:08:32;99690.47;;;14.17;50.39
38227;BME280;24026;49.446;8.576;2023-03-26T04:10:53;99681.13;;;14.15;50.41
38227;BME280;24026;49.446;8.576;2023-03-26T04:13:14;99677.66;;;14.14;50.32
38227;BME280;24026;49.446;8.576;2023-03-26T04:15:35;99667.78;;;14.15;50.20
38227;BME280;24026;49.446;8.576;2023-03-26T04:17:55;99668.88;;;14.14;50.26
38227;BME280;24026;49.446;8.576;2023-03-26T04:20:16;99668.34;;;14.12;50.15
38227;BME280;24026;49.446;8.576;2023-03-26T04:22:38;99662.44;;;14.15;50.56
38227;BME280;24026;49.446;8.576;2023-03-26T04:25:00;99654.69;;;14.13;50.41
38227;BME280;24026;49.446;8.576;2023-03-26T04:27:24;99649.34;;;14.13;50.26
38227;BME280;24026;49.446;8.576;2023-03-26T04:29:48;99647.50;;;14.14;50.51
38227;BME280;24026;49.446;8.576;2023-03-26T04:32:21;99640.53;;;14.13;50.34
38227;BME280;24026;49.446;8.576;2023-03-26T04:34:45;99632.25;;;14.14;50.49
38227;BME280;24026;49.446;8.576;2023-03-26T04:37:08;99624.22;;;14.14;50.69
38227;BME280;24026;49.446;8.576;2023-03-26T04:39:31;99615.69;;;14.12;50.35
38227;BME280;24026;49.446;8.576;2023-03-26T04:41:54;99616.78;;;14.11;50.46
38227;BME280;24026;49.446;8.576;2023-03-26T04:44:15;99614.09;;;14.11;50.19
38227;BME280;24026;49.446;8.576;2023-03-26T04:46:36;99607.69;;;14.12;50.43
38227;BME280;24026;49.446;8.576;2023-03-26T04:48:56;99603.13;;;14.13;50.23
38227;BME280;24026;49.446;8.576;2023-03-26T04:51:18;99606.59;;;14.13;50.38
38227;BME280;24026;49.446;8.576;2023-03-26T04:53:39;99599.66;;;14.12;50.25
38227;BME280;24026;49.446;8.576;2023-03-26T04:56:05;99599.66;;;14.12;50.60
38227;BME280;24026;49.446;8.576;2023-03-26T04:58:28;99593.00;;;14.09;50.48
38227;BME280;24026;49.446;8.576;2023-03-26T05:00:53;99582.31;;;14.09;50.48
38227;BME280;24026;49.446;8.576;2023-03-26T05:03:13;99585.81;;;14.10;50.47
38227;BME280;24026;49.446;8.576;2023-03-26T05:05:34;99582.31;;;14.09;50.84
38227;BME280;24026;49.446;8.576;2023-03-26T05:07:55;99575.41;;;14.08;50.38
38227;BME280;24026;49.446;8.576;2023-03-26T05:10:16;99570.06;;;14.08;50.61
38227;BME280;24026;49.446;8.576;2023-03-26T05:12:36;99576.19;;;14.09;50.50
38227;BME280;24026;49.446;8.576;2023-03-26T05:14:57;99561.22;;;14.08;50.57
38227;BME280;24026;49.446;8.576;2023-03-26T05:17:17;99552.41;;;14.07;50.54
38227;BME280;24026;49.446;8.576;2023-03-26T05:19:40;99554.03;;;14.08;50.57
38227;BME280;24026;49.446;8.576;2023-03-26T05:22:00;99547.06;;;14.07;50.50
38227;BME280;24026;49.446;8.576;2023-03-26T05:24:21;99552.41;;;14.07;50.49
38227;BME280;24026;49.446;8.576;2023-03-26T05:26:43;99546.28;;;14.07;50.53
38227;BME280;24026;49.446;8.576;2023-03-26T05:29:04;99545.19;;;14.08;50.52
38227;BME280;24026;49.446;8.576;2023-03-26T05:31:25;99548.69;;;14.08;50.49
38227;BME280;24026;49.446;8.576;2023-03-26T05:33:47;99546.00;;;14.08;50.73
38227;BME280;24026;49.446;8.576;2023-03-26T05:36:10;99540.94;;;14.07;50.61
38227;BME280;24026;49.446;8.576;2023-03-26T05:38:34;99540.13;;;14.06;50.61
38227;BME280;24026;49.446;8.576;2023-03-26T05:41:02;99527.88;;;14.05;50.70
38227;BME280;24026;49.446;8.576;2023-03-26T05:43:23;99520.94;;;14.04;50.83
38227;BME280;24026;49.446;8.576;2023-03-26T05:45:46;99515.59;;;14.04;50.69
38227;BME280;24026;49.446;8.576;2023-03-26T05:48:06;99514.22;;;14.07;50.68
38227;BME280;24026;49.446;8.576;2023-03-26T05:50:27;99503.53;;;14.07;50.67
38227;BME280;24026;49.446;8.576;2023-03-26T05:52:47;99495.53;;;14.07;50.73
38227;BME280;24026;49.446;8.576;2023-03-26T05:55:08;99497.69;;;14.05;50.50
38227;BME280;24026;49.446;8.576;2023-03-26T05:57:29;99491.53;;;14.04;50.75
38227;BME280;24026;49.446;8.576;2023-03-26T05:59:50;99491.53;;;14.04;50.80
38227;BME280;24026;49.446;8.576;2023-03-26T06:02:10;99487.28;;;14.03;50.74
38227;BME280;24026;49.446;8.576;2023-03-26T06:04:31;99479.56;;;14.02;50.72
38227;BME280;24026;49.446;8.576;2023-03-26T06:06:51;99471.25;;;14.03;50.99
38227;BME280;24026;49.446;8.576;2023-03-26T06:09:12;99470.44;;;14.03;50.87
38227;BME280;24026;49.446;8.576;2023-03-26T06:11:32;99466.19;;;14.02;50.88
38227;BME280;24026;49.446;8.576;2023-03-26T06:13:53;99460.84;;;14.02;50.80
38227;BME280;24026;49.446;8.576;2023-03-26T06:16:14;99459.75;;;14.03;50.87
38227;BME280;24026;49.446;8.576;2023-03-26T06:18:37;99447.22;;;14.03;50.95
38227;BME280;24026;49.446;8.576;2023-03-26T06:20:57;99442.94;;;14.02;50.89
38227;BME280;24026;49.446;8.576;2023-03-26T06:23:18;99442.94;;;14.02;50.82
38227;BME280;24026;49.446;8.576;2023-03-26T06:25:39;99445.63;;;14.02;50.96
38227;BME280;24026;49.446;8.576;2023-03-26T06:28:00;99443.72;;;14.03;50.98
38227;BME280;24026;49.446;8.576;2023-03-26T06:30:20;99441.06;;;14.03;51.04
38227;BME280;24026;49.446;8.576;2023-03-26T06:32:41;99431.47;;;14.02;51.12
38227;BME280;24026;49.446;8.576;2023-03-26T06:35:01;99419.97;;;14.01;50.91
38227;BME280;24026;49.446;8.576;2023-03-26T06:37:21;99422.34;;;14.03;50.95
38227;BME280;24026;49.446;8.576;2023-03-26T06:39:42;99420.78;;;14.02;50.96
38227;BME280;24026;49.446;8.576;2023-03-26T06:42:02;99404.75;;;14.02;51.09
38227;BME280;24026;49.446;8.576;2023-03-26T06:44:23;99403.66;;;14.03;51.04
38227;BME280;24026;49.446;8.576;2023-03-26T06:46:43;99393.25;;;14.01;51.19
38227;BME280;24026;49.446;8.576;2023-03-26T06:49:03;99395.66;;;14.03;51.22
38227;BME280;24026;49.446;8.576;2023-03-26T06:51:24;99392.47;;;14.01;51.30
38227;BME280;24026;49.446;8.576;2023-03-26T06:53:44;99389.50;;;14.02;51.26
38227;BME280;24026;49.446;8.576;2023-03-26T06:56:05;99391.41;;;14.02;51.14
38227;BME280;24026;49.446;8.576;2023-03-26T06:58:26;99392.19;;;14.02;51.28
38227;BME280;24026;49.446;8.576;2023-03-26T07:00:46;99396.47;;;14.03;51.21
38227;BME280;24026;49.446;8.576;2023-03-26T07:03:07;99389.22;;;14.04;51.02
38227;BME280;24026;49.446;8.576;2023-03-26T07:05:27;99378.81;;;14.02;51.15
38227;BME280;24026;49.446;8.576;2023-03-26T07:07:48;99372.69;;;14.02;51.20
38227;BME280;24026;49.446;8.576;2023-03-26T07:10:08;99378.03;;;14.02;51.22
38227;BME280;24026;49.446;8.576;2023-03-26T07:12:29;99382.28;;;14.03;51.33
38227;BME280;24026;49.446;8.576;2023-03-26T07:14:49;99371.59;;;14.03;51.31
38227;BME280;24026;49.446;8.576;2023-03-26T07:17:10;99368.44;;;14.01;51.27
38227;BME280;24026;49.446;8.576;2023-03-26T07:19:30;99364.41;;;14.03;51.37
38227;BME280;24026;49.446;8.576;2023-03-26T07:21:51;99367.34;;;14.02;51.38
38227;BME280;24026;49.446;8.576;2023-03-26T07:24:11;99365.19;;;14.04;51.37
38227;BME280;24026;49.446;8.576;2023-03-26T07:29:36;99363.66;;;13.98;51.58
38227;BME280;24026;49.446;8.576;2023-03-26T07:34:49;99368.94;;;14.03;51.41
38227;BME280;24026;49.446;8.576;2023-03-26T07:40:45;99350.31;;;13.98;51.63
38227;BME280;24026;49.446;8.576;2023-03-26T07:45:24;99343.59;;;14.00;51.63
38227;BME280;24026;49.446;8.576;2023-03-26T07:47:49;99342.50;;;14.01;51.62
38227;BME280;24026;49.446;8.576;2023-03-26T07:50:15;99336.38;;;14.01;51.74
38227;BME280;24026;49.446;8.576;2023-03-26T07:52:36;99338.75;;;14.02;51.58
38227;BME280;24026;49.446;8.576;2023-03-26T07:54:56;99337.44;;;14.00;51.72
38227;BME280;24026;49.446;8.576;2023-03-26T08:00:22;99338.53;;;13.99;52.03
38227;BME280;24026;49.446;8.576;2023-03-26T08:05:26;99344.47;;;13.96;51.91
38227;BME280;24026;49.446;8.576;2023-03-26T08:13:47;99339.69;;;13.93;52.15
38227;BME280;24026;49.446;8.576;2023-03-26T08:17:34;99354.16;;;13.92;52.30
38227;BME280;24026;49.446;8.576;2023-03-26T08:19:47;99364.00;;;13.91;52.23
38227;BME280;24026;49.446;8.576;2023-03-26T08:24:35;99365.25;;;13.99;52.15
38227;BME280;24026;49.446;8.576;2023-03-26T08:27:05;99359.69;;;13.95;52.21
38227;BME280;24026;49.446;8.576;2023-03-26T08:29:40;99355.44;;;13.94;52.38
38227;BME280;24026;49.446;8.576;2023-03-26T08:32:12;99360.50;;;13.96;52.24
38227;BME280;24026;49.446;8.576;2023-03-26T08:34:34;99353.25;;;13.96;52.42
38227;BME280;24026;49.446;8.576;2023-03-26T08:36:55;99356.75;;;13.97;52.44
38227;BME280;24026;49.446;8.576;2023-03-26T08:39:15;99350.59;;;13.96;52.40
38227;BME280;24026;49.446;8.576;2023-03-26T08:46:49;99347.69;;;13.93;52.62
38227;BME280;24026;49.446;8.576;2023-03-26T08:57:42;99326.84;;;13.95;52.57
38227;BME280;24026;49.446;8.576;2023-03-26T09:02:52;99324.44;;;13.93;52.85
38227;BME280;24026;49.446;8.576;2023-03-26T09:10:46;99327.66;;;13.95;52.88
38227;BME280;24026;49.446;8.576;2023-03-26T09:16:14;99318.25;;;13.98;52.98
38227;BME280;24026;49.446;8.576;2023-03-26T09:34:54;99267.13;;;14.04;53.19
38227;BME280;24026;49.446;8.576;2023-03-26T09:37:46;99259.91;;;14.05;53.45
38227;BME280;24026;49.446;8.576;2023-03-26T09:40:17;99265.56;;;14.03;53.59
38227;BME280;24026;49.446;8.576;2023-03-26T09:42:44;99253.97;;;14.08;53.40
38227;BME280;24026;49.446;8.576;2023-03-26T09:51:04;99265.69;;;14.12;53.74
38227;BME280;24026;49.446;8.576;2023-03-26T09:56:18;99267.25;;;14.13;53.79
38227;BME280;24026;49.446;8.576;2023-03-26T09:59:41;99262.44;;;14.15;53.60
38227;BME280;24026;49.446;8.576;2023-03-26T10:05:01;99250.06;;;14.19;53.34
38227;BME280;24026;49.446;8.576;2023-03-26T10:07:48;99242.81;;;14.20;53.76
38227;BME280;24026;49.446;8.576;2023-03-26T10:13:04;99239.47;;;14.28;53.25
38227;BME280;24026;49.446;8.576;2023-03-26T10:15:54;99215.13;;;14.30;53.01
38227;BME280;24026;49.446;8.576;2023-03-26T10:18:26;99232.19;;;14.34;53.16
38227;BME280;24026;49.446;8.576;2023-03-26T10:26:34;99214.88;;;14.45;53.04
38227;BME280;24026;49.446;8.576;2023-03-26T10:29:23;99220.22;;;14.45;53.21
38227;BME280;24026;49.446;8.576;2023-03-26T10:34:54;99233.41;;;14.55;53.07
38227;BME280;24026;49.446;8.576;2023-03-26T10:37:24;99231.50;;;14.56;52.92
38227;BME280;24026;49.446;8.576;2023-03-26T10:42:37;99234.13;;;14.61;52.87
38227;BME280;24026;49.446;8.576;2023-03-26T10:53:34;99233.25;;;14.66;52.62
38227;BME280;24026;49.446;8.576;2023-03-26T10:56:25;99227.41;;;14.63;52.80
38227;BME280;24026;49.446;8.576;2023-03-26T10:58:47;99233.53;;;14.64;52.71
38227;BME280;24026;49.446;8.576;2023-03-26T11:01:16;99222.84;;;14.64;52.73
38227;BME280;24026;49.446;8.576;2023-03-26T11:03:48;99229.78;;;14.65;52.77
38227;BME280;24026;49.446;8.576;2023-03-26T11:14:09;99227.59;;;14.67;52.82
38227;BME280;24026;49.446;8.576;2023-03-26T11:16:42;99222.53;;;14.66;53.00
38227;BME280;24026;49.446;8.576;2023-03-26T11:19:20;99222.84;;;14.64;52.91
38227;BME280;24026;49.446;8.576;2023-03-26T11:27:26;99213.75;;;14.65;52.92
38227;BME280;24026;49.446;8.576;2023-03-26T11:35:06;99217.09;;;14.71;53.04
38227;BME280;24026;49.446;8.576;2023-03-26T11:37:35;99204.81;;;14.70;53.13
38227;BME280;24026;49.446;8.576;2023-03-26T11:39:58;99199.66;;;14.73;53.14
38227;BME280;24026;49.446;8.576;2023-03-26T11:42:22;99201.72;;;14.76;53.20
38227;BME280;24026;49.446;8.576;2023-03-26T11:44:48;99203.53;;;14.81;53.21
38227;BME280;24026;49.446;8.576;2023-03-26T11:47:12;99200.25;;;14.84;53.09
38227;BME280;24026;49.446;8.576;2023-03-26T11:49:35;99191.63;;;14.87;53.06
38227;BME280;24026;49.446;8.576;2023-03-26T11:51:56;99204.19;;;14.87;53.12
38227;BME280;24026;49.446;8.576;2023-03-26T11:54:18;99202.34;;;14.87;52.98
38227;BME280;24026;49.446;8.576;2023-03-26T11:56:48;99182.31;;;14.85;53.02
38227;BME280;24026;49.446;8.576;2023-03-26T11:59:14;99179.34;;;14.86;53.20
38227;BME280;24026;49.446;8.576;2023-03-26T12:01:57;99177.06;;;14.79;53.23
38227;BME280;24026;49.446;8.576;2023-03-26T12:04:24;99178.84;;;14.84;53.51
38227;BME280;24026;49.446;8.576;2023-03-26T12:06:57;99185.00;;;14.85;53.24
38227;BME280;24026;49.446;8.576;2023-03-26T12:09:19;99200.25;;;14.84;53.23
38227;BME280;24026;49.446;8.576;2023-03-26T12:11:39;99183.63;;;14.87;53.31
38227;BME280;24026;49.446;8.576;2023-03-26T12:14:03;99176.97;;;14.85;53.24
38227;BME280;24026;49.446;8.576;2023-03-26T12:16:24;99185.00;;;14.85;53.17
38227;BME280;24026;49.446;8.576;2023-03-26T12:18:57;99189.56;;;14.84;53.09
38227;BME280;24026;49.446;8.576;2023-03-26T12:21:18;99190.34;;;14.85;52.99
38227;BME280;24026;49.446;8.576;2023-03-26T12:26:17;99185.00;;;14.85;52.87
38227;BME280;24026;49.446;8.576;2023-03-26T12:28:52;99183.31;;;14.89;52.55
38227;BME280;24026;49.446;8.576;2023-03-26T12:31:13;99171.69;;;14.93;52.63
38227;BME280;24026;49.446;8.576;2023-03-26T12:33:37;99178.34;;;14.96;52.51
38227;BME280;24026;49.446;8.576;2023-03-26T12:35:59;99169.44;;;15.00;52.28
38227;BME280;24026;49.446;8.576;2023-03-26T12:38:35;99170.22;;;15.01;52.14
38227;BME280;24026;49.446;8.576;2023-03-26T12:41:12;99164.84;;;15.01;52.01
38227;BME280;24026;49.446;8.576;2023-03-26T12:43:50;99174.78;;;15.00;52.32
38227;BME280;24026;49.446;8.576;2023-03-26T12:46:34;99172.59;;;15.03;51.91
38227;BME280;24026;49.446;8.576;2023-03-26T12:48:59;99165.53;;;15.07;51.78
38227;BME280;24026;49.446;8.576;2023-03-26T12:51:46;99161.19;;;15.11;51.48
38227;BME280;24026;49.446;8.576;2023-03-26T12:55:17;99153.44;;;15.09;51.37
38227;BME280;24026;49.446;8.576;2023-03-26T12:57:22;99167.91;;;15.08;51.44
38227;BME280;24026;49.446;8.576;2023-03-26T13:05:18;99165.34;;;15.17;50.83
38227;BME280;24026;49.446;8.576;2023-03-26T13:10:31;99147.56;;;15.21;50.55
38227;BME280;24026;49.446;8.576;2023-03-26T13:15:51;99141.13;;;15.22;50.27
38227;BME280;24026;49.446;8.576;2023-03-26T13:18:27;99148.56;;;15.25;50.17
38227;BME280;24026;49.446;8.576;2023-03-26T13:21:01;99147.16;;;15.28;49.97
38227;BME280;24026;49.446;8.576;2023-03-26T13:31:28;99140.28;;;15.35;49.60
38227;BME280;24026;49.446;8.576;2023-03-26T13:47:13;99113.22;;;15.37;49.18
38227;BME280;24026;49.446;8.576;2023-03-26T13:49:40;99115.09;;;15.36;49.13
38227;BME280;24026;49.446;8.576;2023-03-26T13:52:07;99111.03;;;15.39;49.10
38227;BME280;24026;49.446;8.576;2023-03-26T13:54:33;99112.66;;;15.26;49.00
38227;BME280;24026;49.446;8.576;2023-03-26T13:57:21;99107.47;;;15.30;48.98
38227;BME280;24026;49.446;8.576;2023-03-26T13:59:57;99111.16;;;15.34;48.92
38227;BME280;24026;49.446;8.576;2023-03-26T14:02:31;99112.72;;;15.35;48.86
38227;BME280;24026;49.446;8.576;2023-03-26T14:05:02;99109.84;;;15.31;48.85
38227;BME280;24026;49.446;8.576;2023-03-26T14:07:42;99108.78;;;15.32;48.87
38227;BME280;24026;49.446;8.576;2023-03-26T14:10:12;99113.66;;;15.30;48.62
38227;BME280;24026;49.446;8.576;2023-03-26T14:12:44;99110.97;;;15.30;48.60
38227;BME280;24026;49.446;8.576;2023-03-26T14:15:22;99115.03;;;15.28;48.46
38227;BME280;24026;49.446;8.576;2023-03-26T14:18:23;99109.97;;;15.26;48.46
38227;BME280;24026;49.446;8.576;2023-03-26T14:23:33;99101.78;;;15.23;48.37
38227;BME280;24026;49.446;8.576;2023-03-26T14:26:13;99094.53;;;15.23;48.05
38227;BME280;24026;49.446;8.576;2023-03-26T14:37:19;99093.56;;;15.19;47.21
38227;BME280;24026;49.446;8.576;2023-03-26T14:42:36;99104.25;;;15.19;47.68
38227;BME280;24026;49.446;8.576;2023-03-26T14:47:34;99122.50;;;15.17;47.61
38227;BME280;24026;49.446;8.576;2023-03-26T14:52:50;99125.50;;;15.15;47.54
38227;BME280;24026;49.446;8.576;2023-03-26T15:07:58;99142.06;;;15.04;46.87
38227;BME280;24026;49.446;8.576;2023-03-26T15:19:08;99154.28;;;14.96;46.59
38227;BME280;24026;49.446;8.576;2023-03-26T15:21:47;99151.28;;;14.97;46.65
38227;BME280;24026;49.446;8.576;2023-03-26T15:24:37;99141.78;;;14.91;46.75
38227;BME280;24026;49.446;8.576;2023-03-26T15:35:09;99147.44;;;14.90;46.64
38227;BME280;24026;49.446;8.576;2023-03-26T15:38:10;99149.72;;;14.82;46.45
38227;BME280;24026;49.446;8.576;2023-03-26T15:41:14;99144.69;;;14.81;46.56
38227;BME280;24026;49.446;8.576;2023-03-26T15:51:58;99165.28;;;14.80;46.63
38227;BME280;24026;49.446;8.576;2023-03-26T15:54:29;99179.94;;;14.83;46.70
38227;BME280;24026;49.446;8.576;2023-03-26T15:57:11;99180.22;;;14.81;46.71
38227;BME280;24026;49.446;8.576;2023-03-26T16:11:08;99208.19;;;14.75;46.76
38227;BME280;24026;49.446;8.576;2023-03-26T16:13:34;99210.56;;;14.77;47.11
38227;BME280;24026;49.446;8.576;2023-03-26T16:18:36;99206.31;;;14.62;47.48
38227;BME280;24026;49.446;8.576;2023-03-26T16:28:33;99223.72;;;14.59;47.85
38227;BME280;24026;49.446;8.576;2023-03-26T16:31:26;99223.00;;;14.54;47.91
38227;BME280;24026;49.446;8.576;2023-03-26T16:33:57;99231.22;;;14.57;47.78
38227;BME280;24026;49.446;8.576;2023-03-26T16:39:23;99235.88;;;14.52;48.06
38227;BME280;24026;49.446;8.576;2023-03-26T16:42:02;99239.63;;;14.51;48.22
38227;BME280;24026;49.446;8.576;2023-03-26T16:44:42;99235.88;;;14.52;48.05
38227;BME280;24026;49.446;8.576;2023-03-26T16:58:24;99241.22;;;14.52;48.23
38227;BME280;24026;49.446;8.576;2023-03-26T17:00:53;99251.69;;;14.48;48.34
38227;BME280;24026;49.446;8.576;2023-03-26T17:14:54;99253.28;;;14.35;48.38
38227;BME280;24026;49.446;8.576;2023-03-26T17:20:07;99245.47;;;14.39;48.41
38227;BME280;24026;49.446;8.576;2023-03-26T17:22:44;99257.22;;;14.38;48.28
38227;BME280;24026;49.446;8.576;2023-03-26T17:25:27;99255.03;;;14.40;48.27
38227;BME280;24026;49.446;8.576;2023-03-26T17:28:24;99249.50;;;14.36;48.30